Time;durP1;ratioP1;P1;durP2;ratioP2;P2;SDS_P1;SDS_P2;PMS_P1;PMS_P2;Temp;Humidity;BMP_temperature;BMP_pressure;BME280_temperature;BME280_humidity;BME280_pressure;Samples;Min_cycle;Max_cycle;Signal;HPM_P1;HPM_P2
2024/02/25 00:00:13;;;;;;;;;;;3.60;99.90;;;-146.41;100.00;57768.22;5044665;28;1541;-68
2024/02/25 00:02:43;;;;;;;;;;;3.70;99.90;;;-146.41;100.00;57768.22;5052497;28;1993;-68
2024/02/25 00:05:10;;;;;;;;;;;3.60;99.90;;;-146.41;100.00;57768.22;5040209;28;1345;-67
2024/02/25 00:07:37;;;;;;;;;;;3.60;99.90;;;-146.41;100.00;57768.22;5042835;28;1322;-68
2024/02/25 00:10:06;;;;;;;;;;;3.70;99.90;;;-146.41;100.00;57768.22;5042683;28;2344;-67
2024/02/25 00:12:33;;;;;;;;;;;3.80;99.90;;;-146.41;100.00;57768.22;5041610;28;1400;-67
2024/02/25 00:15:00;;;;;;;;;;;3.80;99.90;;;-146.41;100.00;57768.22;5037776;28;1695;-68
2024/02/25 00:17:26;;;;;;;;;;;3.80;99.90;;;-146.41;100.00;57768.22;5035498;28;1579;-68
2024/02/25 00:19:53;;;;;;;;;;;3.80;99.90;;;-146.41;100.00;57768.22;5039662;28;1651;-68
2024/02/25 00:22:20;;;;;;;;;;;3.90;99.90;;;-146.41;100.00;57768.22;5038631;28;1326;-68
2024/02/25 00:24:47;;;;;;;;;;;4.00;99.90;;;-146.41;100.00;57768.22;5039562;28;2017;-67
2024/02/25 00:27:14;;;;;;;;;;;3.90;99.90;;;-146.41;100.00;57768.22;5041217;28;1416;-67
2024/02/25 00:29:41;;;;;;;;;;;4.00;99.90;;;-146.41;100.00;57768.22;5039098;28;1579;-68
2024/02/25 00:32:07;;;;;;;;;;;4.00;99.90;;;-146.41;100.00;57768.22;5041712;28;1854;-68
2024/02/25 00:34:34;;;;;;;;;;;4.00;99.90;;;-146.41;100.00;57768.22;5041505;28;2932;-68
2024/02/25 00:37:01;;;;;;;;;;;4.00;99.90;;;-146.41;100.00;57768.22;5037041;28;2480;-68
2024/02/25 00:39:28;;;;;;;;;;;4.00;99.90;;;-146.41;100.00;57768.22;5038239;28;2520;-67
2024/02/25 00:41:56;;;;;;;;;;;4.00;99.90;;;-146.41;100.00;57768.22;5038034;28;1387;-67
2024/02/25 00:44:23;;;;;;;;;;;4.00;99.90;;;-146.41;100.00;57768.22;5039756;28;1980;-68
2024/02/25 00:46:50;;;;;;;;;;;4.00;99.90;;;-146.41;100.00;57768.22;5042282;28;1653;-67
2024/02/25 00:49:17;;;;;;;;;;;4.00;99.90;;;-146.41;100.00;57768.22;5039516;28;1487;-68
2024/02/25 00:51:45;;;;;;;;;;;4.10;99.90;;;-146.41;100.00;57768.22;5038289;28;1951;-67
2024/02/25 00:54:12;;;;;;;;;;;4.10;99.90;;;-146.41;100.00;57768.22;5037922;28;1309;-67
2024/02/25 00:56:38;;;;;;;;;;;4.00;99.90;;;-146.41;100.00;57768.22;5040249;28;1308;-67
2024/02/25 00:59:06;;;;;;;;;;;4.10;99.90;;;-146.41;100.00;57768.22;5041235;28;1744;-68
2024/02/25 01:01:33;;;;;;;;;;;4.10;99.90;;;-146.41;100.00;57768.22;5039964;28;1681;-68
2024/02/25 01:03:59;;;;;;;;;;;4.10;99.90;;;-146.41;100.00;57768.22;5038964;28;1898;-67
2024/02/25 01:06:26;;;;;;;;;;;4.10;99.90;;;-146.41;100.00;57768.22;5043212;28;1926;-68
2024/02/25 01:08:53;;;;;;;;;;;4.10;99.90;;;-146.41;100.00;57768.22;5041450;28;1321;-68
2024/02/25 01:11:20;;;;;;;;;;;4.10;99.90;;;-146.41;100.00;57768.22;5040583;28;2464;-68
2024/02/25 01:13:47;;;;;;;;;;;4.20;99.90;;;-146.41;100.00;57768.22;5039150;28;3804;-67
2024/02/25 01:16:14;;;;;;;;;;;4.10;99.90;;;-146.41;100.00;57768.22;5039131;28;1446;-67
2024/02/25 01:18:41;;;;;;;;;;;4.10;99.90;;;-146.41;100.00;57768.22;5041978;28;1618;-68
2024/02/25 01:21:08;;;;;;;;;;;4.20;99.90;;;-146.41;100.00;57768.22;5041045;28;1353;-68
2024/02/25 01:23:34;;;;;;;;;;;4.20;99.90;;;-146.41;100.00;57768.22;5041831;28;1997;-68
2024/02/25 01:26:01;;;;;;;;;;;4.20;99.90;;;-146.41;100.00;57768.22;5041615;28;1270;-67
2024/02/25 01:28:29;;;;;;;;;;;4.20;99.90;;;-146.41;100.00;57768.22;5036855;28;2028;-68
2024/02/25 01:30:56;;;;;;;;;;;4.20;99.90;;;-146.41;100.00;57768.22;5040542;28;1698;-68
2024/02/25 01:33:22;;;;;;;;;;;4.20;99.90;;;-146.41;100.00;57768.22;5041257;28;1573;-68
2024/02/25 01:35:49;;;;;;;;;;;4.10;99.90;;;-146.41;100.00;57768.22;5039642;28;1693;-67
2024/02/25 01:38:16;;;;;;;;;;;4.10;99.90;;;-146.41;100.00;57768.22;5042659;28;1397;-68
2024/02/25 01:40:43;;;;;;;;;;;4.10;99.90;;;-146.41;100.00;57768.22;5042214;28;2460;-68
2024/02/25 01:43:17;;;;;;;;;;;4.10;99.90;;;-146.41;100.00;57768.22;5039788;28;1988;-68
2024/02/25 01:45:45;;;;;;;;;;;4.00;99.90;;;-146.41;100.00;57768.22;5041832;28;1454;-68
2024/02/25 01:48:14;;;;;;;;;;;4.00;99.90;;;-146.41;100.00;57768.22;5040063;28;1422;-68
2024/02/25 01:50:41;;;;;;;;;;;4.00;99.90;;;-146.41;100.00;57768.22;5041760;28;1431;-67
2024/02/25 01:53:08;;;;;;;;;;;4.00;99.90;;;-146.41;100.00;57768.22;5042134;28;1280;-67
2024/02/25 01:55:35;;;;;;;;;;;4.10;99.90;;;-146.41;100.00;57768.22;5040150;28;3009;-68
2024/02/25 01:58:03;;;;;;;;;;;4.10;99.90;;;-146.41;100.00;57768.22;5040539;28;1301;-68
2024/02/25 02:00:30;;;;;;;;;;;4.00;99.90;;;-146.41;100.00;57768.22;5039442;28;1436;-68
2024/02/25 02:03:00;;;;;;;;;;;4.10;99.90;;;-146.41;100.00;57768.22;5037441;28;1660;-68
2024/02/25 02:05:27;;;;;;;;;;;4.00;99.90;;;-146.41;100.00;57768.22;5040446;28;1638;-67
2024/02/25 02:07:54;;;;;;;;;;;4.00;99.90;;;-146.41;100.00;57768.22;5040114;28;1344;-67
2024/02/25 02:10:20;;;;;;;;;;;4.00;99.90;;;-146.41;100.00;57768.22;5040268;28;2097;-67
2024/02/25 02:12:47;;;;;;;;;;;4.00;99.90;;;-146.41;100.00;57768.22;5040762;28;1615;-68
2024/02/25 02:15:14;;;;;;;;;;;4.10;99.90;;;-146.41;100.00;57768.22;5042791;28;1686;-67
2024/02/25 02:17:43;;;;;;;;;;;4.10;99.90;;;-146.41;100.00;57768.22;5038110;28;1293;-68
2024/02/25 02:20:12;;;;;;;;;;;4.00;99.90;;;-146.41;100.00;57768.22;5040563;28;1405;-68
2024/02/25 02:22:39;;;;;;;;;;;4.00;99.90;;;-146.41;100.00;57768.22;5054888;28;2118;-67
2024/02/25 02:25:06;;;;;;;;;;;4.10;99.90;;;-146.41;100.00;57768.22;5041078;28;2682;-67
2024/02/25 02:27:37;;;;;;;;;;;4.00;99.90;;;-146.41;100.00;57768.22;5040333;28;2855;-68
2024/02/25 02:30:05;;;;;;;;;;;4.00;99.90;;;-146.41;100.00;57768.22;5040731;28;1872;-67
2024/02/25 02:32:32;;;;;;;;;;;4.00;99.90;;;-146.41;100.00;57768.22;5040524;28;1408;-68
2024/02/25 02:34:59;;;;;;;;;;;4.00;99.90;;;-146.41;100.00;57768.22;5041921;28;3194;-68
2024/02/25 02:37:26;;;;;;;;;;;4.00;99.90;;;-146.41;100.00;57768.22;5041740;28;2479;-68
2024/02/25 02:39:53;;;;;;;;;;;4.00;99.90;;;-146.41;100.00;57768.22;5041372;28;1117;-67
2024/02/25 02:42:20;;;;;;;;;;;3.90;99.90;;;-146.41;100.00;57768.22;5037794;28;1425;-68
2024/02/25 02:44:48;;;;;;;;;;;3.90;99.90;;;-146.41;100.00;57768.22;5041326;28;1898;-67
2024/02/25 02:47:15;;;;;;;;;;;3.90;99.90;;;-146.41;100.00;57768.22;5042622;28;1155;-67
2024/02/25 02:49:42;;;;;;;;;;;3.90;99.90;;;-146.41;100.00;57768.22;5039247;28;1406;-67
2024/02/25 02:52:09;;;;;;;;;;;3.90;99.90;;;-146.41;100.00;57768.22;5034956;28;2102;-67
2024/02/25 02:54:39;;;;;;;;;;;3.90;99.90;;;-146.41;100.00;57768.22;5041954;28;1419;-67
2024/02/25 02:57:06;;;;;;;;;;;4.00;99.90;;;-146.41;100.00;57768.22;5039820;28;1227;-67
2024/02/25 02:59:33;;;;;;;;;;;4.00;99.90;;;-146.41;100.00;57768.22;5039195;28;1364;-67
2024/02/25 03:02:00;;;;;;;;;;;4.10;99.90;;;-146.41;100.00;57768.22;5037502;28;1272;-68
2024/02/25 03:04:28;;;;;;;;;;;4.10;99.90;;;-146.41;100.00;57768.22;5039716;28;1983;-67
2024/02/25 03:06:55;;;;;;;;;;;4.20;99.90;;;-146.41;100.00;57768.22;5037176;28;2287;-67
2024/02/25 03:09:22;;;;;;;;;;;4.20;99.90;;;-146.41;100.00;57768.22;5039094;28;2677;-68
2024/02/25 03:11:49;;;;;;;;;;;4.20;99.90;;;-146.41;100.00;57768.22;5038032;28;2483;-68
2024/02/25 03:14:17;;;;;;;;;;;4.30;99.90;;;-146.41;100.00;57768.22;5039326;28;1403;-67
2024/02/25 03:16:44;;;;;;;;;;;4.30;99.90;;;-146.41;100.00;57768.22;5057013;28;1175;-68
2024/02/25 03:19:11;;;;;;;;;;;4.30;99.90;;;-146.41;100.00;57768.22;5042669;28;1144;-68
2024/02/25 03:21:43;;;;;;;;;;;4.40;99.90;;;-146.41;100.00;57768.22;5038516;28;1387;-67
2024/02/25 03:24:11;;;;;;;;;;;4.30;99.90;;;-146.41;100.00;57768.22;5042167;28;1998;-67
2024/02/25 03:26:38;;;;;;;;;;;4.30;99.90;;;-146.41;100.00;57768.22;5042701;28;3068;-68
2024/02/25 03:29:06;;;;;;;;;;;4.30;99.90;;;-146.41;100.00;57768.22;5041155;28;1487;-68
2024/02/25 03:31:34;;;;;;;;;;;4.20;99.90;;;-146.41;100.00;57768.22;5042981;28;1989;-68
2024/02/25 03:34:01;;;;;;;;;;;4.10;99.90;;;-146.41;100.00;57768.22;5039895;28;1134;-67
2024/02/25 03:36:29;;;;;;;;;;;4.10;99.90;;;-146.41;100.00;57768.22;5042169;28;1308;-67
2024/02/25 03:38:56;;;;;;;;;;;4.00;99.90;;;-146.41;100.00;57768.22;5040410;28;1241;-68
2024/02/25 03:41:23;;;;;;;;;;;4.00;99.90;;;-146.41;100.00;57768.22;5039004;28;1316;-67
2024/02/25 03:43:50;;;;;;;;;;;4.00;99.90;;;-146.41;100.00;57768.22;5043055;28;2005;-67
2024/02/25 03:46:17;;;;;;;;;;;3.90;99.90;;;-146.41;100.00;57768.22;5052357;28;1126;-67
2024/02/25 03:48:44;;;;;;;;;;;3.90;99.90;;;-146.41;100.00;57768.22;5043707;28;1379;-68
2024/02/25 03:51:11;;;;;;;;;;;4.00;99.90;;;-146.41;100.00;57768.22;5038257;28;1376;-67
2024/02/25 03:53:38;;;;;;;;;;;3.80;99.90;;;-146.41;100.00;57768.22;5039424;28;1315;-68
2024/02/25 03:56:05;;;;;;;;;;;3.80;99.90;;;-146.41;100.00;57768.22;5041000;28;1236;-68
2024/02/25 03:58:32;;;;;;;;;;;3.90;99.90;;;-146.41;100.00;57768.22;5040302;28;1893;-68
2024/02/25 04:00:59;;;;;;;;;;;3.80;99.90;;;-146.41;100.00;57768.22;5041291;28;1662;-68
2024/02/25 04:03:26;;;;;;;;;;;3.80;99.90;;;-146.41;100.00;57768.22;5037158;28;1383;-67
2024/02/25 04:05:53;;;;;;;;;;;3.90;99.90;;;-146.41;100.00;57768.22;5038680;28;1915;-68
2024/02/25 04:08:19;;;;;;;;;;;3.80;99.90;;;-146.41;100.00;57768.22;5039944;28;2934;-68
2024/02/25 04:10:46;;;;;;;;;;;3.80;99.90;;;-146.41;100.00;57768.22;5042288;28;1890;-67
2024/02/25 04:13:13;;;;;;;;;;;3.80;99.90;;;-146.41;100.00;57768.22;5039812;28;1411;-67
2024/02/25 04:15:40;;;;;;;;;;;3.80;99.90;;;-146.41;100.00;57768.22;5038404;28;1666;-67
2024/02/25 04:18:07;;;;;;;;;;;3.80;99.90;;;-146.41;100.00;57768.22;5039049;28;1208;-67
2024/02/25 04:20:35;;;;;;;;;;;3.70;99.90;;;-146.41;100.00;57768.22;5042593;28;1276;-68
2024/02/25 04:23:21;;;;;;;;;;;3.70;99.90;;;-146.41;100.00;57768.22;5040510;28;2240;-67
2024/02/25 04:25:47;;;;;;;;;;;3.70;99.90;;;-146.41;100.00;57768.22;5040157;28;1981;-67
2024/02/25 04:28:14;;;;;;;;;;;3.70;99.90;;;-146.41;100.00;57768.22;5041792;28;1368;-67
2024/02/25 04:30:41;;;;;;;;;;;3.80;99.90;;;-146.41;100.00;57768.22;5039150;28;1411;-67
2024/02/25 04:33:08;;;;;;;;;;;3.70;99.90;;;-146.41;100.00;57768.22;5039030;28;2047;-67
2024/02/25 04:35:35;;;;;;;;;;;3.70;99.90;;;-146.41;100.00;57768.22;5040210;28;2506;-67
2024/02/25 04:38:03;;;;;;;;;;;3.70;99.90;;;-146.41;100.00;57768.22;5039770;28;2468;-68
2024/02/25 04:40:30;;;;;;;;;;;3.70;99.90;;;-146.41;100.00;57768.22;5040969;28;1292;-67
2024/02/25 04:42:56;;;;;;;;;;;3.70;99.90;;;-146.41;100.00;57768.22;5037177;28;1392;-67
2024/02/25 04:45:23;;;;;;;;;;;3.70;99.90;;;-146.41;100.00;57768.22;5041419;28;2016;-67
2024/02/25 04:47:50;;;;;;;;;;;3.80;99.90;;;-146.41;100.00;57768.22;5045031;28;1422;-67
2024/02/25 04:50:17;;;;;;;;;;;3.80;99.90;;;-146.41;100.00;57768.22;5039710;28;1319;-68
2024/02/25 04:52:44;;;;;;;;;;;3.80;99.90;;;-146.41;100.00;57768.22;5040665;28;2966;-68
2024/02/25 04:55:10;;;;;;;;;;;3.80;99.90;;;-146.41;100.00;57768.22;5041400;28;1230;-67
2024/02/25 04:57:37;;;;;;;;;;;3.90;99.90;;;-146.41;100.00;57768.22;5040127;28;1412;-67
2024/02/25 05:00:05;;;;;;;;;;;3.90;99.90;;;-146.41;100.00;57768.22;5041028;28;1431;-67
2024/02/25 05:02:32;;;;;;;;;;;3.90;99.90;;;-146.41;100.00;57768.22;5037812;28;1309;-67
2024/02/25 05:04:59;;;;;;;;;;;4.00;99.90;;;-146.41;100.00;57768.22;5036815;28;2530;-67
2024/02/25 05:07:26;;;;;;;;;;;4.10;99.90;;;-146.41;100.00;57768.22;5038450;28;1086;-68
2024/02/25 05:09:53;;;;;;;;;;;4.00;99.90;;;-146.41;100.00;57768.22;5037818;28;2789;-68
2024/02/25 05:12:22;;;;;;;;;;;4.00;99.90;;;-146.41;100.00;57768.22;5035427;28;1485;-68
2024/02/25 05:14:49;;;;;;;;;;;4.00;99.90;;;-146.41;100.00;57768.22;5037684;28;1081;-68
2024/02/25 05:17:16;;;;;;;;;;;4.00;99.90;;;-146.41;100.00;57768.22;5036332;28;1420;-67
2024/02/25 05:19:43;;;;;;;;;;;4.10;99.90;;;-146.41;100.00;57768.22;5035523;28;1944;-68
2024/02/25 05:22:10;;;;;;;;;;;4.10;99.90;;;-146.41;100.00;57768.22;5038021;28;1499;-67
2024/02/25 05:24:37;;;;;;;;;;;4.10;99.90;;;-146.41;100.00;57768.22;5041994;28;2444;-68
2024/02/25 05:27:04;;;;;;;;;;;4.20;99.90;;;-146.41;100.00;57768.22;5040776;28;1401;-67
2024/02/25 05:29:30;;;;;;;;;;;4.10;99.90;;;-146.41;100.00;57768.22;5040538;28;1172;-68
2024/02/25 05:31:57;;;;;;;;;;;4.20;99.90;;;-146.41;100.00;57768.22;5039975;28;1307;-68
2024/02/25 05:34:24;;;;;;;;;;;4.20;99.90;;;-146.41;100.00;57768.22;5042176;28;1332;-67
2024/02/25 05:36:51;;;;;;;;;;;4.20;99.90;;;-146.41;100.00;57768.22;5037836;28;3042;-67
2024/02/25 05:39:18;;;;;;;;;;;4.20;99.90;;;-146.41;100.00;57768.22;5037606;28;1363;-68
2024/02/25 05:41:45;;;;;;;;;;;4.20;99.90;;;-146.41;100.00;57768.22;5038847;28;1412;-68
2024/02/25 05:44:11;;;;;;;;;;;4.20;99.90;;;-146.41;100.00;57768.22;5040038;28;1987;-67
2024/02/25 05:46:38;;;;;;;;;;;4.20;99.90;;;-146.41;100.00;57768.22;5040046;28;1266;-67
2024/02/25 05:49:05;;;;;;;;;;;4.20;99.90;;;-146.41;100.00;57768.22;5040176;28;1179;-67
2024/02/25 05:51:32;;;;;;;;;;;4.20;99.90;;;-146.41;100.00;57768.22;5039146;28;2035;-68
2024/02/25 05:53:59;;;;;;;;;;;4.20;99.90;;;-146.41;100.00;57768.22;5038606;28;1443;-68
2024/02/25 05:56:26;;;;;;;;;;;4.20;99.90;;;-146.41;100.00;57768.22;5040586;28;1508;-67
2024/02/25 05:58:53;;;;;;;;;;;4.30;99.90;;;-146.41;100.00;57768.22;5035586;28;1414;-68
2024/02/25 06:01:20;;;;;;;;;;;4.20;99.90;;;-146.41;100.00;57768.22;5038642;28;1403;-68
2024/02/25 06:03:47;;;;;;;;;;;4.20;99.90;;;-146.41;100.00;57768.22;5035543;28;1207;-67
2024/02/25 06:06:14;;;;;;;;;;;4.30;99.90;;;-146.41;100.00;57768.22;5040129;28;2431;-68
2024/02/25 06:08:41;;;;;;;;;;;4.20;99.90;;;-146.41;100.00;57768.22;5039361;28;1260;-67
2024/02/25 06:11:08;;;;;;;;;;;4.20;99.90;;;-146.41;100.00;57768.22;5052783;28;1468;-68
2024/02/25 06:13:35;;;;;;;;;;;4.20;99.90;;;-146.41;100.00;57768.22;5036890;28;1117;-67
2024/02/25 06:16:01;;;;;;;;;;;4.20;99.90;;;-146.41;100.00;57768.22;5041268;28;1260;-67
2024/02/25 06:18:28;;;;;;;;;;;4.20;99.90;;;-146.41;100.00;57768.22;5038786;28;1232;-67
2024/02/25 06:20:55;;;;;;;;;;;4.20;99.90;;;-146.41;100.00;57768.22;5035915;28;3733;-68
2024/02/25 06:23:23;;;;;;;;;;;4.20;99.90;;;-146.41;100.00;57768.22;5039361;28;1224;-68
2024/02/25 06:25:49;;;;;;;;;;;4.20;99.90;;;-146.41;100.00;57768.22;5036287;28;1906;-68
2024/02/25 06:28:16;;;;;;;;;;;4.20;99.90;;;-146.41;100.00;57768.22;5036649;28;1332;-67
2024/02/25 06:30:43;;;;;;;;;;;4.20;99.90;;;-146.41;100.00;57768.22;5037345;28;1296;-68
2024/02/25 06:33:10;;;;;;;;;;;4.20;99.90;;;-146.41;100.00;57768.22;5040301;28;2034;-68
2024/02/25 06:35:37;;;;;;;;;;;4.20;99.90;;;-146.41;100.00;57768.22;5044300;28;2500;-68
2024/02/25 06:38:04;;;;;;;;;;;4.20;99.90;;;-146.41;100.00;57768.22;5046428;28;2436;-68
2024/02/25 06:40:31;;;;;;;;;;;4.20;99.90;;;-146.41;100.00;57768.22;5040854;28;1385;-68
2024/02/25 06:42:58;;;;;;;;;;;4.20;99.90;;;-146.41;100.00;57768.22;5041399;28;1319;-68
2024/02/25 06:45:24;;;;;;;;;;;4.20;99.90;;;-146.41;100.00;57768.22;5043811;28;1898;-68
2024/02/25 06:47:52;;;;;;;;;;;4.30;99.90;;;-146.41;100.00;57768.22;5042223;28;1192;-68
2024/02/25 06:50:19;;;;;;;;;;;4.30;99.90;;;-146.41;100.00;57768.22;5041084;28;2039;-68
2024/02/25 06:52:46;;;;;;;;;;;4.30;99.90;;;-146.41;100.00;57768.22;5041739;28;1110;-68
2024/02/25 06:55:13;;;;;;;;;;;4.30;99.90;;;-146.41;100.00;57768.22;5043064;28;1377;-67
2024/02/25 06:57:39;;;;;;;;;;;4.30;99.90;;;-146.41;100.00;57768.22;5041611;28;1288;-68
2024/02/25 07:00:07;;;;;;;;;;;4.30;99.90;;;-146.41;100.00;57768.22;5042643;28;2061;-71
2024/02/25 07:02:36;;;;;;;;;;;4.40;99.90;;;-146.41;100.00;57768.22;5041989;28;3341;-68
2024/02/25 07:05:04;;;;;;;;;;;4.50;99.90;;;-146.41;100.00;57768.22;5042138;28;1914;-68
2024/02/25 07:07:30;;;;;;;;;;;4.50;99.90;;;-146.41;100.00;57768.22;5042750;28;1113;-68
2024/02/25 07:09:57;;;;;;;;;;;4.50;99.90;;;-146.41;100.00;57768.22;5043008;28;2666;-67
2024/02/25 07:12:25;;;;;;;;;;;4.50;99.90;;;-146.41;100.00;57768.22;5038738;28;1985;-68
2024/02/25 07:14:52;;;;;;;;;;;4.50;99.90;;;-146.41;100.00;57768.22;5041715;28;1060;-67
2024/02/25 07:17:20;;;;;;;;;;;4.50;99.90;;;-146.41;100.00;57768.22;5042258;28;1224;-67
2024/02/25 07:19:47;;;;;;;;;;;4.50;99.90;;;-146.41;100.00;57768.22;5040511;28;1086;-68
2024/02/25 07:22:14;;;;;;;;;;;4.60;99.90;;;-146.41;100.00;57768.22;5039965;28;1453;-67
2024/02/25 07:24:41;;;;;;;;;;;4.50;99.90;;;-146.41;100.00;57768.22;5039870;28;2106;-68
2024/02/25 07:27:08;;;;;;;;;;;4.60;99.90;;;-146.41;100.00;57768.22;5041011;28;1124;-67
2024/02/25 07:29:36;;;;;;;;;;;4.60;99.90;;;-146.41;100.00;57768.22;5040346;28;1142;-68
2024/02/25 07:32:03;;;;;;;;;;;4.60;99.90;;;-146.41;100.00;57768.22;5058100;28;1367;-67
2024/02/25 07:34:30;;;;;;;;;;;4.60;99.90;;;-146.41;100.00;57768.22;5040892;28;1189;-68
2024/02/25 07:36:57;;;;;;;;;;;4.60;99.90;;;-146.41;100.00;57768.22;5039600;28;1382;-68
2024/02/25 07:39:23;;;;;;;;;;;4.50;99.90;;;-146.41;100.00;57768.22;5041086;28;1920;-68
2024/02/25 07:41:50;;;;;;;;;;;4.50;99.90;;;-146.41;100.00;57768.22;5040065;28;1349;-68
2024/02/25 07:44:17;;;;;;;;;;;4.50;99.90;;;-146.41;100.00;57768.22;5039117;28;1182;-68
2024/02/25 07:46:44;;;;;;;;;;;4.60;99.90;;;-146.41;100.00;57768.22;5040314;28;1910;-67
2024/02/25 07:49:11;;;;;;;;;;;4.50;99.90;;;-146.41;100.00;57768.22;5040933;28;1157;-68
2024/02/25 07:51:38;;;;;;;;;;;4.60;99.90;;;-146.41;100.00;57768.22;5043617;28;1356;-67
2024/02/25 07:54:05;;;;;;;;;;;4.60;99.90;;;-146.41;100.00;57768.22;5056993;28;3130;-68
2024/02/25 07:56:32;;;;;;;;;;;4.60;99.90;;;-146.41;100.00;57768.22;5039744;28;1414;-68
2024/02/25 07:59:16;;;;;;;;;;;4.70;99.90;;;-146.41;100.00;57768.22;5041876;28;1137;-68
2024/02/25 08:01:43;;;;;;;;;;;4.70;99.90;;;-146.41;100.00;57768.22;5040512;28;1332;-68
2024/02/25 08:04:09;;;;;;;;;;;4.80;99.90;;;-146.41;100.00;57768.22;5037358;28;1129;-68
2024/02/25 08:06:36;;;;;;;;;;;4.80;99.90;;;-146.41;100.00;57768.22;5038800;28;2471;-68
2024/02/25 08:09:03;;;;;;;;;;;4.90;99.90;;;-146.41;100.00;57768.22;5039654;28;1432;-68
2024/02/25 08:11:30;;;;;;;;;;;4.90;99.90;;;-146.41;100.00;57768.22;5039447;28;1384;-68
2024/02/25 08:13:57;;;;;;;;;;;4.90;99.90;;;-146.41;100.00;57768.22;5041286;28;1176;-68
2024/02/25 08:16:25;;;;;;;;;;;4.80;99.90;;;-146.41;100.00;57768.22;5041379;28;1474;-68
2024/02/25 08:18:53;;;;;;;;;;;4.90;99.90;;;-146.41;100.00;57768.22;5038121;28;1261;-68
2024/02/25 08:21:20;;;;;;;;;;;4.90;99.90;;;-146.41;100.00;57768.22;5037261;28;2766;-67
2024/02/25 08:23:47;;;;;;;;;;;5.00;99.90;;;-146.41;100.00;57768.22;5042598;28;1722;-68
2024/02/25 08:26:14;;;;;;;;;;;5.10;99.90;;;-146.41;100.00;57768.22;5040909;28;1985;-68
2024/02/25 08:28:42;;;;;;;;;;;5.10;99.90;;;-146.41;100.00;57768.22;5037482;28;1549;-67
2024/02/25 08:31:08;;;;;;;;;;;5.10;99.90;;;-146.41;100.00;57768.22;5037537;28;1436;-67
2024/02/25 08:33:35;;;;;;;;;;;5.20;99.90;;;-146.41;100.00;57768.22;5037450;28;3055;-67
2024/02/25 08:36:02;;;;;;;;;;;5.10;99.90;;;-146.41;100.00;57768.22;5025671;28;2603;-66
2024/02/25 08:38:29;;;;;;;;;;;5.00;99.90;;;-146.41;100.00;57768.22;5003497;28;1417;-68
2024/02/25 08:40:56;;;;;;;;;;;5.00;99.90;;;-146.41;100.00;57768.22;5036117;28;1474;-67
2024/02/25 08:43:23;;;;;;;;;;;5.10;99.90;;;-146.41;100.00;57768.22;5031321;28;1414;-67
2024/02/25 08:45:50;;;;;;;;;;;5.20;99.90;;;-146.41;100.00;57768.22;5035371;28;1981;-67
2024/02/25 08:48:17;;;;;;;;;;;5.20;99.90;;;-146.41;100.00;57768.22;5031957;28;1919;-67
2024/02/25 08:50:44;;;;;;;;;;;5.20;99.90;;;-146.41;100.00;57768.22;5033506;28;1311;-68
2024/02/25 08:53:11;;;;;;;;;;;5.10;99.90;;;-146.41;100.00;57768.22;5036962;28;1525;-68
2024/02/25 08:55:37;;;;;;;;;;;5.20;99.90;;;-146.41;100.00;57768.22;5035395;28;1557;-68
2024/02/25 08:58:04;;;;;;;;;;;5.40;99.90;;;-146.41;100.00;57768.22;5033047;28;1172;-68
2024/02/25 09:00:31;;;;;;;;;;;5.40;99.90;;;-146.41;100.00;57768.22;5033428;28;1308;-67
2024/02/25 09:02:59;;;;;;;;;;;5.60;99.90;;;-146.41;100.00;57768.22;5031431;28;2236;-68
2024/02/25 09:05:26;;;;;;;;;;;5.70;99.90;;;-146.41;100.00;57768.22;5033486;28;1926;-68
2024/02/25 09:07:54;;;;;;;;;;;5.90;99.90;;;-146.41;100.00;57768.22;5033499;28;2582;-68
2024/02/25 09:10:21;;;;;;;;;;;6.00;99.90;;;-146.41;100.00;57768.22;5030344;28;2425;-68
2024/02/25 09:12:48;;;;;;;;;;;6.10;99.90;;;-146.41;100.00;57768.22;5029739;28;1407;-67
2024/02/25 09:15:16;;;;;;;;;;;6.20;99.90;;;-146.41;100.00;57768.22;5035471;28;3935;-67
2024/02/25 09:17:44;;;;;;;;;;;6.10;99.90;;;-146.41;100.00;57768.22;5033717;28;2599;-68
2024/02/25 09:20:11;;;;;;;;;;;6.10;99.90;;;-146.41;100.00;57768.22;5033191;28;1304;-67
2024/02/25 09:22:38;;;;;;;;;;;6.00;99.90;;;-146.41;100.00;57768.22;5031091;28;1396;-68
2024/02/25 09:25:06;;;;;;;;;;;5.90;99.90;;;-146.41;100.00;57768.22;5029595;28;2003;-68
2024/02/25 09:27:32;;;;;;;;;;;6.10;99.90;;;-146.41;100.00;57768.22;5027158;28;1211;-68
2024/02/25 09:29:59;;;;;;;;;;;6.00;99.90;;;-146.41;100.00;57768.22;5033545;28;1405;-68
2024/02/25 09:32:30;;;;;;;;;;;6.10;99.90;;;-146.41;100.00;57768.22;5029731;28;1958;-68
2024/02/25 09:34:57;;;;;;;;;;;6.00;99.90;;;-146.41;100.00;57768.22;5029762;28;1165;-67
2024/02/25 09:37:24;;;;;;;;;;;6.40;99.90;;;-146.41;100.00;57768.22;5032378;28;1564;-67
2024/02/25 09:39:51;;;;;;;;;;;6.40;99.90;;;-146.41;100.00;57768.22;5033835;28;1111;-67
2024/02/25 09:42:24;;;;;;;;;;;6.40;99.90;;;-146.41;100.00;57768.22;5035612;28;1386;-68
2024/02/25 09:44:52;;;;;;;;;;;6.30;99.90;;;-146.41;100.00;57768.22;5040083;28;1085;-67
2024/02/25 09:47:21;;;;;;;;;;;6.20;99.90;;;-146.41;100.00;57768.22;5034547;28;1910;-67
2024/02/25 09:49:48;;;;;;;;;;;6.20;99.90;;;-146.41;100.00;57768.22;5054919;28;1676;-67
2024/02/25 09:52:17;;;;;;;;;;;6.10;99.90;;;-146.41;100.00;57768.22;5017759;28;2088;-67
2024/02/25 09:54:47;;;;;;;;;;;6.10;99.90;;;-146.41;100.00;57768.22;5038720;28;1087;-68
2024/02/25 09:57:14;;;;;;;;;;;6.20;99.90;;;-146.41;100.00;57768.22;5039010;28;1248;-67
2024/02/25 09:59:41;;;;;;;;;;;6.40;99.90;;;-146.41;100.00;57768.22;5037713;28;2896;-68
2024/02/25 10:02:08;;;;;;;;;;;6.30;99.90;;;-146.41;100.00;57768.22;5035169;28;1225;-68
2024/02/25 10:04:36;;;;;;;;;;;6.40;99.90;;;-146.41;100.00;57768.22;5033751;28;2431;-68
2024/02/25 10:07:04;;;;;;;;;;;6.60;99.90;;;-146.41;100.00;57768.22;5029602;28;2011;-67
2024/02/25 10:09:32;;;;;;;;;;;6.60;99.90;;;-146.41;100.00;57768.22;5039225;28;1424;-68
2024/02/25 10:12:01;;;;;;;;;;;6.70;99.90;;;-146.41;100.00;57768.22;5054781;28;1619;-67
2024/02/25 10:14:29;;;;;;;;;;;6.90;99.90;;;-146.41;100.00;57768.22;5041502;28;1156;-67
2024/02/25 10:17:02;;;;;;;;;;;6.90;99.90;;;-146.41;100.00;57768.22;5042481;28;1359;-68
2024/02/25 10:19:30;;;;;;;;;;;6.70;99.90;;;-146.41;100.00;57768.22;5040773;28;2153;-68
2024/02/25 10:22:11;;;;;;;;;;;6.80;99.90;;;-146.41;100.00;57768.22;5041102;28;1342;-68
2024/02/25 10:24:40;;;;;;;;;;;6.80;99.90;;;-146.41;100.00;57768.22;5040957;28;1092;-68
2024/02/25 10:27:11;;;;;;;;;;;6.90;99.90;;;-146.41;100.00;57768.22;5043109;28;2001;-67
2024/02/25 10:29:52;;;;;;;;;;;6.60;99.90;;;-146.41;100.00;57768.22;5038439;28;1121;-68
2024/02/25 10:32:26;;;;;;;;;;;6.80;99.90;;;-146.41;100.00;57768.22;5040637;28;1594;-68
2024/02/25 10:34:55;;;;;;;;;;;6.80;99.90;;;-146.41;100.00;57768.22;5044257;28;1164;-68
2024/02/25 10:37:26;;;;;;;;;;;6.60;99.90;;;-146.41;100.00;57768.22;5040153;28;6335;-67
2024/02/25 10:39:57;;;;;;;;;;;6.50;99.90;;;-146.41;100.00;57768.22;5043204;28;1193;-66
2024/02/25 10:42:26;;;;;;;;;;;6.50;99.90;;;-146.41;100.00;57768.22;5043425;28;1338;-67
2024/02/25 10:44:57;;;;;;;;;;;6.50;99.90;;;-146.41;100.00;57768.22;5045114;28;1290;-67
2024/02/25 10:47:26;;;;;;;;;;;6.40;99.90;;;-146.41;100.00;57768.22;5047105;28;2000;-68
2024/02/25 10:49:54;;;;;;;;;;;6.70;99.90;;;-146.41;100.00;57768.22;5040458;28;1862;-66
2024/02/25 10:52:27;;;;;;;;;;;6.90;99.90;;;-146.41;100.00;57768.22;5042454;28;2382;-67
2024/02/25 10:54:58;;;;;;;;;;;7.10;99.90;;;-146.41;100.00;57768.22;5040648;28;1179;-68
2024/02/25 10:57:25;;;;;;;;;;;7.00;99.90;;;-146.41;100.00;57768.22;5040402;28;1109;-68
2024/02/25 10:59:53;;;;;;;;;;;7.20;99.90;;;-146.41;100.00;57768.22;5038997;28;1413;-66
2024/02/25 11:02:23;;;;;;;;;;;7.30;99.90;;;-146.41;100.00;57768.22;5034206;28;1420;-67
2024/02/25 11:04:50;;;;;;;;;;;7.30;99.90;;;-146.41;100.00;57768.22;5038235;28;2026;-68
2024/02/25 11:07:16;;;;;;;;;;;7.10;99.90;;;-146.41;100.00;57768.22;5036689;28;2510;-68
2024/02/25 11:09:43;;;;;;;;;;;7.10;99.90;;;-146.41;100.00;57768.22;5042479;28;1395;-68